Time;durP1;ratioP1;P1;durP2;ratioP2;P2;SDS_P1;SDS_P2;PMS_P1;PMS_P2;Temp;Humidity;BMP_temperature;BMP_pressure;BME280_temperature;BME280_humidity;BME280_pressure;Samples;Min_cycle;Max_cycle;Signal;HPM_P1;HPM_P2
2022/09/22 00:01:37;;;;;;;5.22;4.47;;;;;;;11.49;74.67;99743.25;5071295;28;20109;-58
2022/09/22 00:04:06;;;;;;;5.45;4.95;;;;;;;11.57;74.00;99734.50;5071334;28;20028;-53
2022/09/22 00:06:35;;;;;;;7.15;5.88;;;;;;;11.65;73.48;99738.38;5070910;28;20467;-60
2022/09/22 00:09:01;;;;;;;7.53;6.13;;;;;;;11.46;74.33;99737.28;5071224;28;20043;-60
2022/09/22 00:11:30;;;;;;;7.50;6.72;;;;;;;11.50;74.00;99733.34;5071693;28;20450;-58
2022/09/22 00:14:00;;;;;;;8.48;6.80;;;;;;;11.44;74.64;99744.59;5070379;28;20340;-58
2022/09/22 00:16:48;;;;;;;8.82;7.60;;;;;;;11.47;74.93;99760.44;5073137;28;20124;-55
2022/09/22 00:19:19;;;;;;;9.55;8.05;;;;;;;11.67;73.54;99755.19;5066736;28;20414;-53
2022/09/22 00:21:46;;;;;;;9.82;8.38;;;;;;;11.47;74.05;99750.56;5075263;28;20044;-58
2022/09/22 00:24:12;;;;;;;10.32;8.02;;;;;;;11.67;72.84;99760.56;5073993;28;20351;-57
2022/09/22 00:26:38;;;;;;;9.40;8.40;;;;;;;11.52;73.50;99755.50;5074780;28;20048;-56
2022/09/22 00:29:08;;;;;;;8.05;6.93;;;;;;;11.74;72.54;99761.72;5074717;28;20024;-54
2022/09/22 00:31:34;;;;;;;9.05;8.05;;;;;;;11.51;72.95;99745.78;5074679;28;20072;-56
2022/09/22 00:34:00;;;;;;;9.48;7.53;;;;;;;11.64;72.61;99758.97;5074806;28;20034;-57
2022/09/22 00:36:26;;;;;;;8.75;7.85;;;;;;;11.44;73.83;99769.56;5074441;28;20112;-56
2022/09/22 00:38:54;;;;;;;8.43;7.53;;;;;;;11.38;74.48;99766.59;5074822;28;20040;-55
2022/09/22 00:41:26;;;;;;;9.50;7.68;;;;;;;11.41;74.72;99769.00;5074297;28;20036;-57
2022/09/22 00:44:25;;;;;;;9.90;8.05;;;;;;;11.56;74.18;99765.00;5074576;28;20033;-53
2022/09/22 00:46:57;;;;;;;8.27;7.40;;;;;;;11.49;74.81;99761.13;5074834;28;20043;-55
2022/09/22 00:49:35;;;;;;;8.68;7.13;;;;;;;11.61;74.32;99768.16;5074235;28;20123;-55
2022/09/22 00:52:01;;;;;;;9.38;7.57;;;;;;;11.58;73.57;99757.69;5073968;28;20136;-54
2022/09/22 00:54:26;;;;;;;10.40;8.32;;;;;;;11.56;73.82;99762.31;5061795;28;20040;-55
2022/09/22 00:57:13;;;;;;;9.60;8.30;;;;;;;11.58;74.36;99764.88;5054901;28;20035;-57
2022/09/22 00:59:43;;;;;;;11.45;7.68;;;;;;;11.53;74.57;99759.88;5064267;28;20115;-53
2022/09/22 01:02:09;;;;;;;9.57;7.63;;;;;;;11.54;74.72;99755.41;5074002;28;20029;-57
2022/09/22 01:04:35;;;;;;;8.98;7.70;;;;;;;11.69;73.69;99758.59;5074692;28;20094;-61
2022/09/22 01:07:01;;;;;;;7.55;6.80;;;;;;;11.81;72.93;99753.97;5075232;28;20028;-58
2022/09/22 01:09:31;;;;;;;11.57;7.70;;;;;;;11.69;73.58;99754.06;5073770;28;20032;-54
2022/09/22 01:11:58;;;;;;;8.93;7.95;;;;;;;11.58;74.28;99746.97;5073987;28;20421;-56
2022/09/22 01:14:39;;;;;;;7.32;6.50;;;;;;;11.79;72.81;99748.75;5074279;28;20063;-58
2022/09/22 01:17:28;;;;;;;9.18;7.68;;;;;;;11.84;72.75;99746.53;5074690;28;20043;-58
2022/09/22 01:20:23;;;;;;;7.88;6.72;;;;;;;11.70;73.94;99749.56;5072701;28;20105;-54
2022/09/22 01:23:15;;;;;;;7.70;6.93;;;;;;;11.77;73.41;99758.75;5054489;28;20375;-54
2022/09/22 01:25:59;;;;;;;15.50;7.32;;;;;;;11.85;73.25;99756.28;5074449;28;20032;-56
2022/09/22 01:28:52;;;;;;;8.20;7.40;;;;;;;11.90;72.70;99756.72;5072994;28;20477;-60
2022/09/22 01:31:24;;;;;;;7.80;6.80;;;;;;;11.61;74.08;99746.69;5072458;28;20450;-55
2022/09/22 01:33:58;;;;;;;8.68;6.68;;;;;;;11.81;72.91;99745.94;5074004;28;20040;-54
2022/09/22 01:36:41;;;;;;;10.07;7.43;;;;;;;11.74;73.31;99750.97;5074476;28;20071;-57
2022/09/22 01:39:30;;;;;;;10.30;7.35;;;;;;;11.69;74.30;99751.38;5073510;28;20089;-57
2022/09/22 01:42:29;;;;;;;9.90;6.90;;;;;;;11.73;73.70;99754.66;5073607;28;20047;-56
2022/09/22 01:45:08;;;;;;;9.05;7.97;;;;;;;11.74;74.21;99743.78;5073832;28;20055;-54
2022/09/22 01:47:52;;;;;;;8.48;7.32;;;;;;;11.74;74.20;99737.56;5073535;28;20046;-57
2022/09/22 01:50:25;;;;;;;8.55;7.32;;;;;;;11.91;73.27;99744.13;5073371;28;20055;-53
2022/09/22 01:52:54;;;;;;;9.18;7.85;;;;;;;11.75;72.83;99715.13;5073332;28;20351;-55
2022/09/22 01:55:26;;;;;;;9.30;7.53;;;;;;;11.92;72.16;99737.78;5073016;28;20036;-53
2022/09/22 01:58:00;;;;;;;11.18;8.20;;;;;;;11.80;72.93;99745.06;5073133;28;20183;-57
2022/09/22 02:00:25;;;;;;;9.48;7.57;;;;;;;11.86;72.32;99744.56;5073117;28;20363;-57
2022/09/22 02:02:52;;;;;;;8.02;6.95;;;;;;;11.85;72.31;99737.50;5073038;28;20047;-56
2022/09/22 02:05:29;;;;;;;10.73;7.80;;;;;;;11.83;72.00;99733.25;5073243;28;20033;-55
2022/09/22 02:07:57;;;;;;;8.60;6.45;;;;;;;11.73;72.95;99750.16;5071568;28;20437;-54
2022/09/22 02:10:32;;;;;;;8.98;7.68;;;;;;;11.72;73.43;99751.13;5073231;28;20419;-60
2022/09/22 02:12:59;;;;;;;9.60;7.80;;;;;;;11.94;72.04;99751.06;5072692;28;20031;-55
2022/09/22 02:18:16;;;;;;;9.55;8.40;;;;;;;11.79;72.50;99748.75;5059904;28;20039;-60
2022/09/22 02:20:42;;;;;;;9.15;7.90;;;;;;;11.70;72.61;99752.22;5072569;28;20032;-56
2022/09/22 02:23:08;;;;;;;9.15;8.18;;;;;;;11.71;72.74;99756.63;5073098;28;20119;-56
2022/09/22 02:25:34;;;;;;;10.45;7.97;;;;;;;11.80;72.37;99765.69;5073261;28;20114;-56
2022/09/22 02:28:00;;;;;;;10.45;7.90;;;;;;;11.60;73.23;99761.09;5071319;28;20032;-56
2022/09/22 02:30:26;;;;;;;10.82;8.18;;;;;;;11.65;72.92;99757.16;5072479;28;20045;-55
2022/09/22 02:32:55;;;;;;;9.85;8.18;;;;;;;11.75;72.58;99763.41;5072930;28;20041;-58
2022/09/22 02:35:25;;;;;;;8.85;7.70;;;;;;;11.77;72.69;99758.75;5072570;28;20025;-54
2022/09/22 02:38:10;;;;;;;10.32;8.18;;;;;;;11.65;72.97;99757.16;5072067;28;20359;-56
2022/09/22 02:41:00;;;;;;;11.90;8.13;;;;;;;11.83;72.16;99758.25;5072665;28;20040;-54
2022/09/22 02:43:37;;;;;;;9.50;7.60;;;;;;;11.68;72.83;99762.25;5072869;28;20131;-56
2022/09/22 02:46:14;;;;;;;10.32;8.52;;;;;;;11.37;73.42;99722.00;5072309;28;20028;-56
2022/09/22 02:48:45;;;;;;;10.43;8.73;;;;;;;11.60;73.43;99755.72;5072190;28;20131;-55
2022/09/22 02:51:13;;;;;;;10.25;8.38;;;;;;;11.70;73.01;99766.50;5072885;28;20041;-59
2022/09/22 02:53:38;;;;;;;11.40;9.10;;;;;;;11.48;72.87;99730.81;5072952;28;20037;-55
2022/09/22 02:56:04;;;;;;;10.15;8.80;;;;;;;11.56;73.23;99756.09;5072175;28;20043;-54
2022/09/22 02:58:29;;;;;;;11.20;8.85;;;;;;;11.61;72.96;99749.38;5072006;28;20170;-56
2022/09/22 03:00:55;;;;;;;11.48;8.93;;;;;;;11.65;72.84;99760.66;5072796;28;20178;-57
2022/09/22 03:03:21;;;;;;;10.82;9.40;;;;;;;11.68;72.54;99763.09;5072458;28;20133;-56
2022/09/22 03:05:46;;;;;;;11.50;9.25;;;;;;;11.66;72.32;99753.50;5072160;28;20035;-54
2022/09/22 03:08:11;;;;;;;11.00;9.52;;;;;;;11.55;73.24;99755.25;5071783;28;20032;-60
2022/09/22 03:10:37;;;;;;;11.10;9.60;;;;;;;11.43;73.55;99761.69;5072737;28;20028;-57
2022/09/22 03:13:02;;;;;;;11.25;10.02;;;;;;;11.38;74.16;99758.53;5072590;28;20443;-55
2022/09/22 03:15:28;;;;;;;15.50;9.93;;;;;;;11.44;73.98;99755.34;5071890;28;20036;-55
2022/09/22 03:17:54;;;;;;;11.70;10.43;;;;;;;11.49;73.82;99758.47;5071522;28;20094;-54
2022/09/22 03:20:19;;;;;;;12.35;10.13;;;;;;;11.52;73.47;99758.19;5072728;28;20044;-51
2022/09/22 03:22:45;;;;;;;11.43;9.23;;;;;;;11.52;73.75;99762.72;5072582;28;20418;-54
2022/09/22 03:25:11;;;;;;;10.45;9.35;;;;;;;11.54;73.91;99766.97;5071975;28;20104;-55
2022/09/22 03:27:37;;;;;;;10.52;9.18;;;;;;;11.61;73.35;99773.50;5071769;28;20032;-57
2022/09/22 03:30:04;;;;;;;10.60;9.50;;;;;;;11.68;72.83;99778.34;5072404;28;20048;-52
2022/09/22 03:32:30;;;;;;;11.55;9.27;;;;;;;11.66;72.96;99788.34;5072301;28;20430;-57
2022/09/22 03:34:56;;;;;;;10.65;9.55;;;;;;;11.56;73.35;99796.34;5087879;28;20064;-58
2022/09/22 03:37:21;;;;;;;11.10;9.10;;;;;;;11.56;73.34;99791.81;5071435;28;20052;-56
2022/09/22 03:39:47;;;;;;;11.52;9.07;;;;;;;11.50;73.34;99781.59;5072144;28;20354;-56
2022/09/22 03:42:12;;;;;;;11.50;9.40;;;;;;;11.42;73.65;99784.94;5072179;28;20366;-55
2022/09/22 03:44:37;;;;;;;11.85;10.52;;;;;;;11.41;74.13;99787.75;5071464;28;20430;-57
2022/09/22 03:47:03;;;;;;;14.32;11.25;;;;;;;11.26;74.19;99758.59;5071506;28;20188;-59
2022/09/22 03:49:30;;;;;;;10.65;9.55;;;;;;;11.28;74.31;99762.00;5071177;28;20032;-57
2022/09/22 03:51:55;;;;;;;12.98;10.95;;;;;;;11.38;74.18;99772.78;5073266;28;20047;-56
2022/09/22 03:54:21;;;;;;;12.75;10.40;;;;;;;11.53;73.70;99786.72;5074656;28;20025;-55
2022/09/22 03:56:47;;;;;;;14.93;12.07;;;;;;;11.50;73.56;99792.34;5075430;28;20055;-57
2022/09/22 03:59:13;;;;;;;12.77;10.68;;;;;;;11.52;73.63;99790.38;5075881;28;20032;-58
2022/09/22 04:01:38;;;;;;;12.65;11.05;;;;;;;11.27;73.77;99754.94;5074062;28;20431;-59
2022/09/22 04:04:04;;;;;;;13.80;11.40;;;;;;;11.50;73.66;99781.59;5075084;28;20151;-60
2022/09/22 04:06:29;;;;;;;12.73;11.23;;;;;;;11.51;73.30;99783.31;5075735;28;20374;-59
2022/09/22 04:08:55;;;;;;;15.95;11.73;;;;;;;11.48;73.73;99780.88;5074380;28;20077;-60
2022/09/22 04:11:22;;;;;;;16.45;12.38;;;;;;;11.47;73.99;99782.75;5074525;28;20032;-61
2022/09/22 04:13:47;;;;;;;13.63;11.73;;;;;;;11.44;73.93;99766.06;5075735;28;20427;-62
2022/09/22 04:16:13;;;;;;;14.95;12.35;;;;;;;11.48;73.48;99759.44;5074769;28;20067;-58
2022/09/22 04:18:39;;;;;;;16.73;11.82;;;;;;;11.75;73.01;99776.81;5074816;28;20040;-57
2022/09/22 04:21:05;;;;;;;15.23;12.27;;;;;;;11.62;73.37;99779.72;5075098;28;20036;-59
2022/09/22 04:23:30;;;;;;;14.50;12.30;;;;;;;11.76;72.80;99776.69;5074754;28;20044;-62
2022/09/22 04:25:55;;;;;;;15.05;13.05;;;;;;;11.67;73.08;99766.75;5074431;28;20040;-61
2022/09/22 04:28:21;;;;;;;14.00;12.35;;;;;;;11.62;73.71;99772.53;5074940;28;20135;-61
2022/09/22 04:30:47;;;;;;;15.32;12.90;;;;;;;11.65;73.49;99765.19;5075148;28;20060;-63
2022/09/22 04:33:12;;;;;;;19.75;13.77;;;;;;;11.91;72.41;99779.00;5075109;28;20033;-60
2022/09/22 04:35:38;;;;;;;16.92;12.88;;;;;;;11.81;72.83;99776.28;5074339;28;20347;-61
2022/09/22 04:38:03;;;;;;;15.98;12.43;;;;;;;11.83;72.61;99777.03;5074884;28;20059;-59
2022/09/22 04:40:29;;;;;;;14.90;12.18;;;;;;;11.78;72.84;99776.53;5074785;28;20039;-62
2022/09/22 04:42:56;;;;;;;13.75;12.25;;;;;;;11.85;72.94;99776.88;5073028;28;20042;-65
2022/09/22 04:45:21;;;;;;;15.95;12.75;;;;;;;11.85;72.74;99774.19;5074193;28;20036;-63
2022/09/22 04:47:49;;;;;;;13.80;12.30;;;;;;;11.97;72.54;99785.69;5075069;28;20102;-64
2022/09/22 04:50:15;;;;;;;15.55;12.85;;;;;;;12.05;72.26;99780.50;5074594;28;20458;-63
2022/09/22 04:52:48;;;;;;;14.77;12.65;;;;;;;12.17;71.98;99779.44;5074298;28;20116;-63
2022/09/22 04:55:15;;;;;;;14.55;12.73;;;;;;;12.12;71.43;99765.59;5074936;28;20040;-63
2022/09/22 04:57:51;;;;;;;14.52;12.73;;;;;;;12.32;71.21;99777.25;5074879;28;20032;-63
2022/09/22 05:00:18;;;;;;;16.77;13.55;;;;;;;12.26;70.97;99776.94;5074362;28;20048;-65
2022/09/22 05:02:43;;;;;;;17.10;13.02;;;;;;;12.31;70.97;99772.03;5072945;28;20340;-64
2022/09/22 05:05:09;;;;;;;16.17;13.23;;;;;;;12.32;70.78;99777.25;5074449;28;20041;-64
2022/09/22 05:07:35;;;;;;;18.70;12.85;;;;;;;12.34;70.49;99759.16;5074100;28;20111;-64
2022/09/22 05:10:01;;;;;;;15.52;13.35;;;;;;;12.51;69.39;99764.88;5074485;28;20103;-64
2022/09/22 05:12:28;;;;;;;14.27;11.73;;;;;;;12.49;69.05;99751.56;5073999;28;20060;-64
2022/09/22 05:14:53;;;;;;;14.40;12.27;;;;;;;12.48;69.03;99767.81;5074426;28;20403;-64
2022/09/22 05:17:19;;;;;;;14.00;12.00;;;;;;;12.33;70.03;99767.38;5074329;28;20036;-63
2022/09/22 05:19:45;;;;;;;14.73;11.90;;;;;;;12.27;70.17;99768.75;5074524;28;20025;-65
2022/09/22 05:22:11;;;;;;;12.93;10.45;;;;;;;12.34;69.67;99764.53;5074156;28;20194;-64
2022/09/22 05:24:37;;;;;;;13.55;8.10;;;;;;;12.54;68.30;99767.25;5074308;28;20069;-64
2022/09/22 05:27:03;;;;;;;15.55;11.45;;;;;;;12.21;69.94;99774.69;5074436;28;20401;-64
2022/09/22 05:29:29;;;;;;;12.38;10.55;;;;;;;12.30;69.16;99775.69;5074322;28;20032;-63
2022/09/22 05:31:54;;;;;;;15.38;11.18;;;;;;;12.29;69.04;99772.16;5073634;28;20098;-64
2022/09/22 05:34:20;;;;;;;12.93;10.38;;;;;;;12.24;69.46;99771.72;5074235;28;20035;-63
2022/09/22 05:36:45;;;;;;;14.60;11.45;;;;;;;12.20;69.20;99768.44;5073884;28;20038;-63
2022/09/22 05:39:11;;;;;;;15.38;10.98;;;;;;;12.24;69.37;99773.53;5089619;28;20060;-63
2022/09/22 05:41:36;;;;;;;12.55;11.20;;;;;;;12.20;69.15;99748.81;5073746;28;20355;-64
2022/09/22 05:44:01;;;;;;;13.07;10.57;;;;;;;12.51;68.82;99772.91;5073731;28;20059;-68
2022/09/22 05:46:27;;;;;;;12.82;10.20;;;;;;;12.44;68.41;99740.38;5073205;28;20020;-64
2022/09/22 05:48:53;;;;;;;14.43;10.77;;;;;;;12.75;67.97;99772.53;5073400;28;20044;-64
2022/09/22 05:51:18;;;;;;;13.40;10.93;;;;;;;12.65;68.51;99771.66;5073907;28;20135;-65
2022/09/22 05:53:44;;;;;;;12.90;10.23;;;;;;;12.75;68.11;99767.16;5073308;28;20033;-64
2022/09/22 05:56:09;;;;;;;12.98;10.25;;;;;;;12.85;67.69;99767.16;5073127;28;20040;-63
2022/09/22 05:58:34;;;;;;;12.38;10.90;;;;;;;12.70;67.50;99758.66;5073403;28;20025;-65
2022/09/22 06:01:00;;;;;;;14.73;11.20;;;;;;;12.68;68.18;99768.69;5073757;28;20021;-65
2022/09/22 06:03:25;;;;;;;12.90;10.80;;;;;;;12.80;67.86;99760.53;5073430;28;20423;-64
2022/09/22 06:05:51;;;;;;;12.57;10.80;;;;;;;12.87;67.28;99742.84;5072994;28;20024;-64
2022/09/22 06:08:16;;;;;;;12.68;10.77;;;;;;;12.99;67.61;99755.16;5073025;28;20124;-64
2022/09/22 06:10:44;;;;;;;13.45;11.40;;;;;;;13.07;66.80;99759.81;5072753;28;20032;-65
2022/09/22 06:13:10;;;;;;;16.25;12.13;;;;;;;13.10;67.15;99764.06;5072956;28;20028;-71
2022/09/22 06:15:37;;;;;;;15.23;11.32;;;;;;;12.98;67.53;99761.50;5072033;28;20060;-67
2022/09/22 06:18:06;;;;;;;12.52;10.93;;;;;;;12.91;68.11;99768.44;5053469;28;20063;-68
2022/09/22 06:20:32;;;;;;;17.77;12.82;;;;;;;12.90;67.48;99775.69;5052992;28;20029;-65
2022/09/22 06:22:58;;;;;;;14.23;11.52;;;;;;;12.93;67.31;99774.53;5053110;28;20029;-67
2022/09/22 06:25:26;;;;;;;14.98;10.75;;;;;;;12.83;67.13;99765.63;5065522;28;20386;-66
2022/09/22 06:28:01;;;;;;;14.55;11.40;;;;;;;12.76;68.10;99770.69;5072740;28;20051;-68
2022/09/22 06:30:26;;;;;;;14.98;11.25;;;;;;;12.70;67.87;99772.09;5072621;28;20040;-66
2022/09/22 06:32:54;;;;;;;14.02;11.85;;;;;;;12.67;68.63;99767.00;5072467;28;20028;-66
2022/09/22 06:35:19;;;;;;;15.73;12.65;;;;;;;12.75;68.18;99767.16;5072107;28;20035;-67
2022/09/22 06:37:47;;;;;;;16.02;12.32;;;;;;;12.78;68.12;99764.22;5071223;28;20029;-67
2022/09/22 06:40:13;;;;;;;17.15;12.32;;;;;;;12.83;67.83;99771.00;5072764;28;20032;-66
2022/09/22 06:42:41;;;;;;;14.07;11.00;;;;;;;12.97;67.06;99769.72;5072561;28;20504;-73
2022/09/22 06:45:07;;;;;;;15.00;12.07;;;;;;;12.82;67.81;99778.19;5069512;28;21308;-66
2022/09/22 06:47:33;;;;;;;15.63;12.45;;;;;;;12.78;67.76;99777.66;5070584;28;20094;-67
2022/09/22 06:50:03;;;;;;;14.95;11.98;;;;;;;12.83;67.18;99776.38;5053724;28;20478;-67
2022/09/22 06:52:28;;;;;;;16.23;12.68;;;;;;;12.74;67.45;99767.31;5070620;28;20028;-66
2022/09/22 06:54:59;;;;;;;13.35;11.88;;;;;;;12.72;67.65;99747.78;5070798;28;20044;-64
2022/09/22 06:57:26;;;;;;;15.32;12.20;;;;;;;13.07;66.70;99781.31;5067439;28;20098;-63
2022/09/22 06:59:52;;;;;;;16.48;12.80;;;;;;;13.13;65.44;99779.91;5071689;28;20041;-65
2022/09/22 07:02:18;;;;;;;17.02;12.40;;;;;;;13.11;66.10;99781.91;5072604;28;20554;-64
2022/09/22 07:04:45;;;;;;;16.85;13.20;;;;;;;12.99;66.87;99779.34;5071850;28;20050;-65
2022/09/22 07:07:10;;;;;;;15.88;12.57;;;;;;;12.97;66.64;99786.69;5070220;28;20036;-64
2022/09/22 07:09:36;;;;;;;15.98;12.65;;;;;;;12.85;66.44;99744.84;5071782;28;20048;-65
2022/09/22 07:12:01;;;;;;;13.68;11.73;;;;;;;13.02;66.56;99776.38;5059733;28;20435;-62
2022/09/22 07:14:27;;;;;;;18.00;12.10;;;;;;;13.06;65.99;99769.75;5071030;28;20040;-61
2022/09/22 07:16:54;;;;;;;18.52;11.75;;;;;;;13.06;66.10;99771.56;5071342;28;20028;-61
2022/09/22 07:19:19;;;;;;;15.73;12.55;;;;;;;12.96;66.92;99778.78;5071984;28;20432;-61
2022/09/22 07:21:46;;;;;;;17.35;11.98;;;;;;;12.97;65.94;99749.06;5071855;28;20052;-61
2022/09/22 07:24:11;;;;;;;15.93;12.65;;;;;;;13.00;66.69;99785.56;5068867;28;20024;-60
2022/09/22 07:26:38;;;;;;;18.48;12.85;;;;;;;12.99;66.55;99781.19;5066163;28;20147;-61
2022/09/22 07:29:07;;;;;;;16.92;12.55;;;;;;;13.04;66.69;99790.53;5064429;28;20040;-61
2022/09/22 07:31:33;;;;;;;18.27;12.85;;;;;;;13.10;66.31;99790.94;5069617;28;20076;-61
2022/09/22 07:33:59;;;;;;;15.73;12.48;;;;;;;13.27;65.67;99786.69;5068083;28;20466;-62
2022/09/22 07:36:27;;;;;;;16.70;12.52;;;;;;;13.53;64.74;99781.63;5068991;28;20032;-61
2022/09/22 07:38:54;;;;;;;18.17;11.73;;;;;;;14.03;63.24;99785.03;5069911;28;20025;-61
2022/09/22 07:41:22;;;;;;;12.82;11.43;;;;;;;14.40;61.78;99753.69;5070911;28;20439;-61
2022/09/22 07:43:50;;;;;;;15.68;12.35;;;;;;;15.03;60.39;99792.41;5071603;28;20115;-61
2022/09/22 07:46:15;;;;;;;17.33;12.43;;;;;;;15.21;59.18;99789.75;5071493;28;20079;-63
2022/09/22 07:48:47;;;;;;;17.13;12.38;;;;;;;15.01;59.58;99772.84;5071135;28;20040;-60
2022/09/22 07:51:22;;;;;;;16.08;12.90;;;;;;;15.10;60.14;99800.75;5071585;28;20048;-62
2022/09/22 07:53:53;;;;;;;20.25;13.85;;;;;;;14.84;61.02;99798.81;5070598;28;20040;-61
2022/09/22 07:56:20;;;;;;;19.35;13.27;;;;;;;14.58;61.65;99808.41;5070891;28;20036;-60
2022/09/22 07:58:51;;;;;;;17.58;14.52;;;;;;;14.39;62.04;99795.91;5070240;28;20031;-61
2022/09/22 08:01:19;;;;;;;19.55;12.82;;;;;;;13.87;63.30;99778.41;5069282;28;20036;-62
2022/09/22 08:03:46;;;;;;;17.65;13.15;;;;;;;13.78;64.38;99807.03;5071451;28;20057;-62
2022/09/22 08:06:13;;;;;;;17.02;14.40;;;;;;;13.74;64.61;99804.78;5059607;28;20029;-61
2022/09/22 08:08:44;;;;;;;15.88;13.63;;;;;;;13.68;65.08;99803.53;5062692;28;20103;-57
2022/09/22 08:11:16;;;;;;;18.30;13.13;;;;;;;13.49;65.61;99796.31;5071372;28;20112;-63
2022/09/22 08:13:56;;;;;;;15.27;13.00;;;;;;;13.47;65.58;99803.69;5071114;28;20028;-61
2022/09/22 08:16:23;;;;;;;17.77;13.88;;;;;;;13.53;65.29;99803.13;5070640;28;20355;-62
2022/09/22 08:18:55;;;;;;;15.30;12.65;;;;;;;13.35;66.16;99801.13;5070804;28;20024;-61
2022/09/22 08:21:34;;;;;;;20.58;13.98;;;;;;;13.20;66.80;99797.16;5071168;28;20469;-61
2022/09/22 08:24:04;;;;;;;17.88;13.30;;;;;;;13.08;67.23;99785.69;5070307;28;20051;-61
2022/09/22 08:26:30;;;;;;;18.75;14.05;;;;;;;13.31;66.18;99788.09;5071225;28;20103;-62
2022/09/22 08:28:56;;;;;;;21.08;13.98;;;;;;;13.32;65.95;99797.88;5070736;28;20124;-61
2022/09/22 08:31:24;;;;;;;17.80;13.40;;;;;;;13.30;66.22;99803.41;5069687;28;20028;-61
2022/09/22 08:33:53;;;;;;;17.90;13.48;;;;;;;13.52;65.97;99795.19;5070908;28;20033;-62
2022/09/22 08:36:19;;;;;;;17.38;12.75;;;;;;;13.72;65.03;99802.25;5071255;28;20514;-62
2022/09/22 08:38:48;;;;;;;17.15;12.05;;;;;;;14.00;63.92;99791.53;5074229;28;20455;-60
2022/09/22 08:41:23;;;;;;;16.42;12.02;;;;;;;14.24;63.30;99784.78;5073791;28;20043;-62
2022/09/22 08:43:54;;;;;;;15.52;11.50;;;;;;;14.12;63.60;99791.38;5073815;28;20447;-62
2022/09/22 08:46:31;;;;;;;17.40;11.73;;;;;;;14.08;64.06;99798.88;5074176;28;20032;-62
2022/09/22 08:52:08;;;;;;;19.20;11.65;;;;;;;14.07;63.51;99802.56;5054623;28;20093;-62
2022/09/22 08:54:34;;;;;;;16.85;11.60;;;;;;;13.90;63.83;99802.34;5054271;28;20467;-62
2022/09/22 08:57:21;;;;;;;14.15;11.30;;;;;;;14.04;64.25;99803.69;5069439;28;20048;-64
2022/09/22 09:00:06;;;;;;;16.63;11.82;;;;;;;14.15;62.85;99799.16;5073705;28;20123;-60
2022/09/22 09:02:42;;;;;;;13.63;11.23;;;;;;;14.25;63.40;99808.03;5062061;28;20459;-64
2022/09/22 09:05:26;;;;;;;12.90;10.50;;;;;;;14.28;62.43;99813.09;5074498;28;20037;-66
2022/09/22 09:08:10;;;;;;;14.30;10.48;;;;;;;14.21;62.42;99818.22;5072496;28;20040;-65
2022/09/22 09:10:44;;;;;;;15.27;11.35;;;;;;;14.09;62.70;99813.19;5072981;28;20024;-66
2022/09/22 09:13:12;;;;;;;13.35;11.43;;;;;;;14.21;62.60;99814.72;5074078;28;20043;-65
2022/09/22 09:15:52;;;;;;;14.90;11.38;;;;;;;14.23;62.66;99822.63;5074485;28;20032;-66
2022/09/22 09:18:24;;;;;;;13.18;11.18;;;;;;;13.95;62.06;99787.59;5074381;28;20035;-68
2022/09/22 09:20:51;;;;;;;19.45;12.70;;;;;;;13.97;62.65;99820.56;5071783;28;20036;-67
2022/09/22 09:23:33;;;;;;;14.60;11.65;;;;;;;13.93;62.72;99806.59;5073564;28;20036;-65
2022/09/22 09:25:59;;;;;;;16.27;11.57;;;;;;;13.81;62.74;99813.13;5074434;28;20085;-65
2022/09/22 09:28:40;;;;;;;12.95;11.52;;;;;;;14.00;62.47;99823.84;5073868;28;20029;-62
2022/09/22 09:31:30;;;;;;;15.20;11.48;;;;;;;14.09;62.62;99823.94;5072018;28;20442;-61
2022/09/22 09:34:01;;;;;;;12.85;11.40;;;;;;;14.37;61.26;99822.16;5073726;28;20048;-63
2022/09/22 09:36:45;;;;;;;13.57;11.60;;;;;;;14.59;60.24;99814.66;5073905;28;20060;-61
2022/09/22 09:39:32;;;;;;;14.82;11.02;;;;;;;14.62;60.31;99815.22;5072344;28;20113;-61
2022/09/22 09:42:00;;;;;;;12.93;11.52;;;;;;;14.49;59.66;99814.72;5072209;28;20046;-62
2022/09/22 09:44:38;;;;;;;13.95;10.32;;;;;;;14.58;60.34;99821.88;5073237;28;20105;-61
2022/09/22 09:47:07;;;;;;;14.70;11.15;;;;;;;14.60;59.01;99813.66;5073313;28;20039;-63
2022/09/22 09:49:33;;;;;;;12.75;11.35;;;;;;;14.61;58.71;99805.44;5072929;28;20052;-65
2022/09/22 09:52:07;;;;;;;14.10;11.77;;;;;;;14.73;58.69;99811.50;5072108;28;20052;-63
2022/09/22 09:54:36;;;;;;;13.17;10.60;;;;;;;14.89;57.81;99810.84;5072744;28;20055;-65
2022/09/22 09:57:07;;;;;;;12.55;11.23;;;;;;;14.94;57.86;99802.25;5073479;28;20024;-63
2022/09/22 10:02:26;;;;;;;12.35;11.00;;;;;;;15.12;57.29;99814.91;5071013;28;20029;-65
2022/09/22 10:05:05;;;;;;;13.57;10.43;;;;;;;15.03;57.33;99816.69;5072989;28;20755;-66
2022/09/22 10:07:40;;;;;;;14.45;11.10;;;;;;;14.85;58.21;99811.28;5073352;28;20028;-64
2022/09/22 10:10:33;;;;;;;;;;;;;;;15.11;57.86;99818.63;5073319;28;20032;-64
2022/09/22 10:13:04;;;;;;;11.60;10.18;;;;;;;14.96;57.83;99805.69;5071411;28;19916;-64
2022/09/22 10:15:31;;;;;;;11.80;10.45;;;;;;;15.06;56.91;99805.59;5053587;28;20059;-62
2022/09/22 10:17:57;;;;;;;10.63;8.75;;;;;;;15.02;56.49;99793.41;5068925;28;20362;-65
2022/09/22 10:20:25;;;;;;;12.07;9.65;;;;;;;14.99;56.99;99801.81;5072369;28;20035;-64
2022/09/22 10:22:55;;;;;;;11.85;9.48;;;;;;;15.03;57.01;99790.59;5072763;28;20411;-62
2022/09/22 10:25:26;;;;;;;10.43;8.90;;;;;;;14.96;57.14;99777.88;5072720;28;20063;-64
2022/09/22 10:28:02;;;;;;;10.95;9.45;;;;;;;15.12;57.55;99799.59;5072224;28;20033;-67
2022/09/22 10:30:36;;;;;;;13.18;10.77;;;;;;;15.01;58.14;99799.81;5072230;28;20032;-64
2022/09/22 10:33:20;;;;;;;12.95;9.75;;;;;;;15.21;57.84;99798.66;5073074;28;20514;-67
2022/09/22 10:36:08;;;;;;;14.00;9.80;;;;;;;15.25;58.24;99796.50;5071964;28;20044;-64
2022/09/22 10:38:39;;;;;;;12.35;9.75;;;;;;;15.23;57.50;99789.56;5054713;28;20060;-67
2022/09/22 10:41:09;;;;;;;13.77;9.55;;;;;;;15.06;57.63;99789.41;5072664;28;20048;-66
2022/09/22 10:43:56;;;;;;;11.57;8.85;;;;;;;15.08;57.99;99792.81;5072536;28;20116;-64
2022/09/22 10:46:54;;;;;;;10.27;9.13;;;;;;;14.99;58.29;99791.91;5071671;28;20117;-62
2022/09/22 10:49:57;;;;;;;11.15;9.30;;;;;;;15.16;57.83;99797.41;5071658;28;20044;-64
2022/09/22 10:52:26;;;;;;;10.75;9.63;;;;;;;15.01;57.29;99789.03;5072354;28;20170;-63
2022/09/22 10:54:51;;;;;;;11.23;9.57;;;;;;;14.99;57.93;99793.72;5072431;28;20043;-63
2022/09/22 10:57:31;;;;;;;11.10;8.85;;;;;;;15.23;56.90;99806.59;5071987;28;20040;-64
2022/09/22 11:00:12;;;;;;;11.80;9.20;;;;;;;14.88;58.34;99794.78;5071671;28;20039;-64
2022/09/22 11:03:07;;;;;;;10.77;9.25;;;;;;;14.90;57.72;99796.34;5071541;28;20036;-63
2022/09/22 11:14:34;;;;;;;10.38;8.70;;;;;;;14.67;58.52;99774.34;5072055;28;20377;-62
2022/09/22 11:17:21;;;;;;;10.02;9.02;;;;;;;14.90;57.15;99773.94;5070312;28;20028;-59
2022/09/22 11:19:49;;;;;;;13.43;8.68;;;;;;;14.91;56.52;99771.09;5069464;28;20393;-60
2022/09/22 11:22:29;;;;;;;11.10;7.57;;;;;;;14.81;57.29;99780.25;5071712;28;20044;-62
2022/09/22 11:25:03;;;;;;;8.63;7.68;;;;;;;14.97;56.85;99772.34;5071738;28;20039;-59
2022/09/22 11:27:40;;;;;;;12.20;7.95;;;;;;;14.99;57.20;99773.03;5071000;28;20358;-59
2022/09/22 11:30:20;;;;;;;10.95;8.32;;;;;;;15.02;57.09;99766.47;5071967;28;20041;-65
2022/09/22 11:32:53;;;;;;;9.50;8.50;;;;;;;14.97;57.78;99780.41;5071106;28;20032;-56
2022/09/22 11:35:26;;;;;;;8.85;7.95;;;;;;;15.01;57.55;99776.41;5071651;28;20035;-58
2022/09/22 11:38:23;;;;;;;9.32;8.32;;;;;;;15.20;57.45;99780.78;5070727;28;20481;-56
2022/09/22 11:41:16;;;;;;;8.75;7.85;;;;;;;15.13;57.68;99779.72;5071776;28;20439;-59
2022/09/22 11:44:00;;;;;;;9.13;8.05;;;;;;;15.03;57.38;99777.09;5071557;28;20063;-61
2022/09/22 11:46:35;;;;;;;9.15;8.10;;;;;;;14.94;58.29;99772.63;5069666;28;20358;-60
2022/09/22 11:49:00;;;;;;;8.60;7.50;;;;;;;14.80;58.47;99770.47;5070693;28;20335;-59
2022/09/22 11:51:50;;;;;;;7.97;6.40;;;;;;;14.85;58.83;99765.47;5071173;28;20036;-57
2022/09/22 11:54:31;;;;;;;8.10;7.00;;;;;;;14.87;58.72;99768.84;5070724;28;20036;-57
2022/09/22 11:57:01;;;;;;;9.43;6.60;;;;;;;14.84;58.46;99767.31;5071140;28;20110;-59